sensor_id;sensor_type;location;lat;lon;timestamp;P1;durP1;ratioP1;P2;durP2;ratioP2
74749;SDS011;63269;53.330;-6.288;2023-07-31T00:01:27;2.60;;;1.42;;
74749;SDS011;63269;53.330;-6.288;2023-07-31T00:03:52;1.70;;;1.10;;
74749;SDS011;63269;53.330;-6.288;2023-07-31T00:06:17;1.85;;;1.10;;
74749;SDS011;63269;53.330;-6.288;2023-07-31T00:08:43;2.13;;;1.30;;
74749;SDS011;63269;53.330;-6.288;2023-07-31T00:11:08;2.58;;;1.20;;
74749;SDS011;63269;53.330;-6.288;2023-07-31T00:13:33;3.08;;;1.45;;
74749;SDS011;63269;53.330;-6.288;2023-07-31T00:15:59;2.17;;;1.20;;
74749;SDS011;63269;53.330;-6.288;2023-07-31T00:18:24;2.38;;;1.10;;
74749;SDS011;63269;53.330;-6.288;2023-07-31T00:20:50;1.63;;;1.23;;
74749;SDS011;63269;53.330;-6.288;2023-07-31T00:23:15;2.05;;;1.10;;
74749;SDS011;63269;53.330;-6.288;2023-07-31T00:25:41;2.65;;;1.40;;
74749;SDS011;63269;53.330;-6.288;2023-07-31T00:28:07;2.90;;;1.15;;
74749;SDS011;63269;53.330;-6.288;2023-07-31T00:30:32;2.35;;;1.48;;
74749;SDS011;63269;53.330;-6.288;2023-07-31T00:32:58;2.28;;;1.27;;
74749;SDS011;63269;53.330;-6.288;2023-07-31T00:35:23;2.40;;;1.23;;
74749;SDS011;63269;53.330;-6.288;2023-07-31T00:37:48;1.55;;;1.20;;
74749;SDS011;63269;53.330;-6.288;2023-07-31T00:40:14;2.30;;;1.23;;
74749;SDS011;63269;53.330;-6.288;2023-07-31T00:42:39;4.47;;;1.60;;
74749;SDS011;63269;53.330;-6.288;2023-07-31T00:45:05;1.80;;;1.10;;
74749;SDS011;63269;53.330;-6.288;2023-07-31T00:47:30;1.63;;;1.10;;
74749;SDS011;63269;53.330;-6.288;2023-07-31T00:49:56;2.67;;;1.30;;
74749;SDS011;63269;53.330;-6.288;2023-07-31T00:52:21;1.85;;;1.23;;
74749;SDS011;63269;53.330;-6.288;2023-07-31T00:54:47;2.33;;;1.17;;
74749;SDS011;63269;53.330;-6.288;2023-07-31T00:57:13;1.80;;;1.00;;
74749;SDS011;63269;53.330;-6.288;2023-07-31T00:59:39;1.80;;;1.02;;
74749;SDS011;63269;53.330;-6.288;2023-07-31T01:02:04;1.70;;;0.98;;
74749;SDS011;63269;53.330;-6.288;2023-07-31T01:04:30;1.80;;;0.93;;
74749;SDS011;63269;53.330;-6.288;2023-07-31T01:07:06;2.40;;;1.00;;
74749;SDS011;63269;53.330;-6.288;2023-07-31T01:09:46;1.92;;;1.23;;
74749;SDS011;63269;53.330;-6.288;2023-07-31T01:12:17;2.92;;;1.25;;
74749;SDS011;63269;53.330;-6.288;2023-07-31T01:14:51;2.75;;;1.02;;
74749;SDS011;63269;53.330;-6.288;2023-07-31T01:17:27;1.65;;;1.05;;
74749;SDS011;63269;53.330;-6.288;2023-07-31T01:19:53;2.45;;;1.33;;
74749;SDS011;63269;53.330;-6.288;2023-07-31T01:28:13;1.90;;;1.10;;
74749;SDS011;63269;53.330;-6.288;2023-07-31T01:30:43;3.38;;;1.30;;
74749;SDS011;63269;53.330;-6.288;2023-07-31T01:33:12;1.55;;;1.20;;
74749;SDS011;63269;53.330;-6.288;2023-07-31T01:35:39;2.72;;;1.10;;
74749;SDS011;63269;53.330;-6.288;2023-07-31T01:38:05;3.42;;;1.52;;
74749;SDS011;63269;53.330;-6.288;2023-07-31T01:40:31;2.78;;;1.20;;
74749;SDS011;63269;53.330;-6.288;2023-07-31T01:42:56;1.63;;;1.00;;
74749;SDS011;63269;53.330;-6.288;2023-07-31T01:45:22;1.73;;;1.20;;
74749;SDS011;63269;53.330;-6.288;2023-07-31T01:47:47;2.08;;;1.10;;
74749;SDS011;63269;53.330;-6.288;2023-07-31T01:50:12;1.70;;;1.08;;
74749;SDS011;63269;53.330;-6.288;2023-07-31T01:52:38;2.15;;;1.10;;
74749;SDS011;63269;53.330;-6.288;2023-07-31T01:55:03;1.63;;;1.00;;
74749;SDS011;63269;53.330;-6.288;2023-07-31T01:57:29;2.38;;;1.33;;
74749;SDS011;63269;53.330;-6.288;2023-07-31T01:59:54;1.98;;;1.00;;
74749;SDS011;63269;53.330;-6.288;2023-07-31T02:02:21;2.05;;;1.00;;
74749;SDS011;63269;53.330;-6.288;2023-07-31T02:04:48;2.17;;;1.02;;
74749;SDS011;63269;53.330;-6.288;2023-07-31T02:07:13;2.10;;;0.95;;
74749;SDS011;63269;53.330;-6.288;2023-07-31T02:09:39;1.52;;;1.00;;
74749;SDS011;63269;53.330;-6.288;2023-07-31T02:12:04;2.35;;;1.13;;
74749;SDS011;63269;53.330;-6.288;2023-07-31T02:14:30;2.03;;;1.00;;
74749;SDS011;63269;53.330;-6.288;2023-07-31T02:16:55;2.28;;;1.00;;
74749;SDS011;63269;53.330;-6.288;2023-07-31T02:19:21;2.25;;;1.20;;
74749;SDS011;63269;53.330;-6.288;2023-07-31T02:21:46;1.40;;;0.90;;
74749;SDS011;63269;53.330;-6.288;2023-07-31T02:24:11;1.65;;;1.02;;
74749;SDS011;63269;53.330;-6.288;2023-07-31T02:26:37;1.55;;;1.02;;
74749;SDS011;63269;53.330;-6.288;2023-07-31T02:29:02;2.10;;;1.10;;
74749;SDS011;63269;53.330;-6.288;2023-07-31T02:31:28;1.70;;;1.08;;
74749;SDS011;63269;53.330;-6.288;2023-07-31T02:33:53;1.55;;;0.88;;
74749;SDS011;63269;53.330;-6.288;2023-07-31T02:36:19;1.45;;;1.20;;
74749;SDS011;63269;53.330;-6.288;2023-07-31T02:38:44;1.65;;;1.10;;
74749;SDS011;63269;53.330;-6.288;2023-07-31T02:41:10;1.55;;;1.15;;
74749;SDS011;63269;53.330;-6.288;2023-07-31T02:43:35;1.30;;;0.90;;
74749;SDS011;63269;53.330;-6.288;2023-07-31T02:46:01;1.30;;;0.93;;
74749;SDS011;63269;53.330;-6.288;2023-07-31T02:48:26;1.38;;;0.77;;
74749;SDS011;63269;53.330;-6.288;2023-07-31T02:50:51;1.40;;;0.90;;
74749;SDS011;63269;53.330;-6.288;2023-07-31T02:53:17;1.40;;;0.80;;
74749;SDS011;63269;53.330;-6.288;2023-07-31T02:55:42;1.50;;;0.95;;
74749;SDS011;63269;53.330;-6.288;2023-07-31T02:58:07;1.50;;;1.00;;
74749;SDS011;63269;53.330;-6.288;2023-07-31T03:00:33;1.65;;;1.00;;
74749;SDS011;63269;53.330;-6.288;2023-07-31T03:02:58;1.20;;;0.75;;
74749;SDS011;63269;53.330;-6.288;2023-07-31T03:05:24;1.33;;;0.85;;
74749;SDS011;63269;53.330;-6.288;2023-07-31T03:07:49;1.10;;;0.70;;
74749;SDS011;63269;53.330;-6.288;2023-07-31T03:10:15;1.58;;;0.90;;
74749;SDS011;63269;53.330;-6.288;2023-07-31T03:12:40;1.40;;;0.80;;
74749;SDS011;63269;53.330;-6.288;2023-07-31T03:15:06;1.50;;;0.85;;
74749;SDS011;63269;53.330;-6.288;2023-07-31T03:17:32;1.35;;;0.68;;
74749;SDS011;63269;53.330;-6.288;2023-07-31T03:19:57;1.77;;;0.77;;
74749;SDS011;63269;53.330;-6.288;2023-07-31T03:22:23;1.35;;;0.90;;
74749;SDS011;63269;53.330;-6.288;2023-07-31T03:24:48;2.20;;;0.70;;
74749;SDS011;63269;53.330;-6.288;2023-07-31T03:27:13;1.58;;;0.93;;
74749;SDS011;63269;53.330;-6.288;2023-07-31T03:29:39;1.17;;;0.57;;
74749;SDS011;63269;53.330;-6.288;2023-07-31T03:32:04;1.52;;;0.77;;
74749;SDS011;63269;53.330;-6.288;2023-07-31T03:34:30;1.23;;;0.65;;
74749;SDS011;63269;53.330;-6.288;2023-07-31T03:36:57;1.30;;;0.70;;
74749;SDS011;63269;53.330;-6.288;2023-07-31T03:39:23;1.23;;;0.70;;
74749;SDS011;63269;53.330;-6.288;2023-07-31T03:41:48;1.30;;;0.77;;
74749;SDS011;63269;53.330;-6.288;2023-07-31T03:44:14;1.55;;;0.70;;
74749;SDS011;63269;53.330;-6.288;2023-07-31T03:46:39;1.50;;;0.75;;
74749;SDS011;63269;53.330;-6.288;2023-07-31T03:49:05;0.82;;;0.60;;
74749;SDS011;63269;53.330;-6.288;2023-07-31T03:51:30;1.15;;;0.60;;
74749;SDS011;63269;53.330;-6.288;2023-07-31T03:53:56;1.10;;;0.68;;
74749;SDS011;63269;53.330;-6.288;2023-07-31T03:56:21;1.85;;;0.73;;
74749;SDS011;63269;53.330;-6.288;2023-07-31T03:58:47;1.20;;;0.63;;
74749;SDS011;63269;53.330;-6.288;2023-07-31T04:01:12;1.95;;;0.70;;
74749;SDS011;63269;53.330;-6.288;2023-07-31T04:03:38;1.10;;;0.70;;
74749;SDS011;63269;53.330;-6.288;2023-07-31T04:06:03;1.02;;;0.60;;
74749;SDS011;63269;53.330;-6.288;2023-07-31T04:08:29;1.33;;;0.67;;
74749;SDS011;63269;53.330;-6.288;2023-07-31T04:10:54;2.45;;;1.00;;
74749;SDS011;63269;53.330;-6.288;2023-07-31T04:13:19;1.20;;;0.80;;
74749;SDS011;63269;53.330;-6.288;2023-07-31T04:15:50;0.93;;;0.52;;
74749;SDS011;63269;53.330;-6.288;2023-07-31T04:18:16;1.83;;;1.05;;
74749;SDS011;63269;53.330;-6.288;2023-07-31T04:20:41;1.02;;;0.60;;
74749;SDS011;63269;53.330;-6.288;2023-07-31T04:23:06;1.35;;;0.68;;
74749;SDS011;63269;53.330;-6.288;2023-07-31T04:25:32;1.25;;;0.70;;
74749;SDS011;63269;53.330;-6.288;2023-07-31T04:27:59;0.93;;;0.50;;
74749;SDS011;63269;53.330;-6.288;2023-07-31T04:30:25;0.98;;;0.40;;
74749;SDS011;63269;53.330;-6.288;2023-07-31T04:32:50;1.20;;;0.70;;
74749;SDS011;63269;53.330;-6.288;2023-07-31T04:35:16;1.20;;;0.75;;
74749;SDS011;63269;53.330;-6.288;2023-07-31T04:37:41;0.77;;;0.60;;
74749;SDS011;63269;53.330;-6.288;2023-07-31T04:40:07;1.00;;;0.57;;
74749;SDS011;63269;53.330;-6.288;2023-07-31T04:42:33;1.38;;;0.50;;
74749;SDS011;63269;53.330;-6.288;2023-07-31T04:44:59;1.15;;;0.57;;
74749;SDS011;63269;53.330;-6.288;2023-07-31T04:47:24;2.33;;;0.60;;
74749;SDS011;63269;53.330;-6.288;2023-07-31T04:49:50;1.02;;;0.60;;
74749;SDS011;63269;53.330;-6.288;2023-07-31T04:52:15;1.08;;;0.65;;
74749;SDS011;63269;53.330;-6.288;2023-07-31T04:54:41;0.80;;;0.40;;
74749;SDS011;63269;53.330;-6.288;2023-07-31T04:57:06;0.73;;;0.40;;
74749;SDS011;63269;53.330;-6.288;2023-07-31T04:59:31;1.52;;;0.60;;
74749;SDS011;63269;53.330;-6.288;2023-07-31T05:01:57;1.52;;;0.52;;
74749;SDS011;63269;53.330;-6.288;2023-07-31T05:04:22;1.23;;;0.50;;
74749;SDS011;63269;53.330;-6.288;2023-07-31T05:06:48;1.58;;;0.50;;
74749;SDS011;63269;53.330;-6.288;2023-07-31T05:09:13;1.50;;;0.80;;
74749;SDS011;63269;53.330;-6.288;2023-07-31T05:11:39;0.70;;;0.45;;
74749;SDS011;63269;53.330;-6.288;2023-07-31T05:14:05;0.90;;;0.43;;
74749;SDS011;63269;53.330;-6.288;2023-07-31T05:16:31;0.90;;;0.40;;
74749;SDS011;63269;53.330;-6.288;2023-07-31T05:18:56;1.52;;;0.55;;
74749;SDS011;63269;53.330;-6.288;2023-07-31T05:21:21;0.98;;;0.60;;
74749;SDS011;63269;53.330;-6.288;2023-07-31T05:23:47;1.02;;;0.75;;
74749;SDS011;63269;53.330;-6.288;2023-07-31T05:26:13;0.90;;;0.45;;
74749;SDS011;63269;53.330;-6.288;2023-07-31T05:28:38;1.17;;;0.52;;
74749;SDS011;63269;53.330;-6.288;2023-07-31T05:31:04;1.13;;;0.52;;
74749;SDS011;63269;53.330;-6.288;2023-07-31T05:33:30;1.17;;;0.50;;
74749;SDS011;63269;53.330;-6.288;2023-07-31T05:35:56;1.38;;;0.70;;
74749;SDS011;63269;53.330;-6.288;2023-07-31T05:38:21;1.00;;;0.50;;
74749;SDS011;63269;53.330;-6.288;2023-07-31T05:40:47;0.60;;;0.40;;
74749;SDS011;63269;53.330;-6.288;2023-07-31T05:43:13;0.95;;;0.60;;
74749;SDS011;63269;53.330;-6.288;2023-07-31T05:45:39;0.68;;;0.50;;
74749;SDS011;63269;53.330;-6.288;2023-07-31T05:48:05;0.90;;;0.50;;
74749;SDS011;63269;53.330;-6.288;2023-07-31T05:50:31;1.27;;;0.70;;
74749;SDS011;63269;53.330;-6.288;2023-07-31T05:52:56;1.42;;;0.50;;
74749;SDS011;63269;53.330;-6.288;2023-07-31T05:55:22;1.98;;;0.65;;
74749;SDS011;63269;53.330;-6.288;2023-07-31T05:57:48;1.48;;;0.73;;
74749;SDS011;63269;53.330;-6.288;2023-07-31T06:00:14;0.98;;;0.50;;
74749;SDS011;63269;53.330;-6.288;2023-07-31T06:02:40;1.17;;;0.80;;
74749;SDS011;63269;53.330;-6.288;2023-07-31T06:05:05;1.35;;;0.57;;
74749;SDS011;63269;53.330;-6.288;2023-07-31T06:07:31;0.80;;;0.50;;
74749;SDS011;63269;53.330;-6.288;2023-07-31T06:09:57;1.80;;;0.90;;
74749;SDS011;63269;53.330;-6.288;2023-07-31T06:12:30;1.33;;;0.60;;
74749;SDS011;63269;53.330;-6.288;2023-07-31T06:14:56;1.45;;;1.08;;
74749;SDS011;63269;53.330;-6.288;2023-07-31T06:17:21;2.13;;;0.70;;
74749;SDS011;63269;53.330;-6.288;2023-07-31T06:19:47;1.88;;;0.90;;
74749;SDS011;63269;53.330;-6.288;2023-07-31T06:22:12;1.52;;;1.00;;
74749;SDS011;63269;53.330;-6.288;2023-07-31T06:24:38;1.80;;;0.80;;
74749;SDS011;63269;53.330;-6.288;2023-07-31T06:27:04;1.70;;;0.90;;
74749;SDS011;63269;53.330;-6.288;2023-07-31T06:29:31;1.00;;;0.70;;
74749;SDS011;63269;53.330;-6.288;2023-07-31T06:31:56;2.80;;;1.00;;
74749;SDS011;63269;53.330;-6.288;2023-07-31T06:34:22;2.35;;;0.98;;
74749;SDS011;63269;53.330;-6.288;2023-07-31T06:36:47;1.83;;;0.90;;
74749;SDS011;63269;53.330;-6.288;2023-07-31T06:39:12;1.50;;;1.13;;
74749;SDS011;63269;53.330;-6.288;2023-07-31T06:41:38;2.15;;;1.15;;
74749;SDS011;63269;53.330;-6.288;2023-07-31T06:44:03;2.35;;;1.10;;
74749;SDS011;63269;53.330;-6.288;2023-07-31T06:46:29;3.13;;;1.08;;
74749;SDS011;63269;53.330;-6.288;2023-07-31T06:48:54;2.65;;;1.02;;
74749;SDS011;63269;53.330;-6.288;2023-07-31T06:51:20;1.85;;;1.13;;
74749;SDS011;63269;53.330;-6.288;2023-07-31T06:53:45;2.20;;;1.08;;
74749;SDS011;63269;53.330;-6.288;2023-07-31T06:56:11;2.13;;;1.23;;
74749;SDS011;63269;53.330;-6.288;2023-07-31T06:58:36;3.70;;;1.38;;
74749;SDS011;63269;53.330;-6.288;2023-07-31T07:01:02;3.05;;;1.27;;
74749;SDS011;63269;53.330;-6.288;2023-07-31T07:03:28;2.45;;;1.55;;
74749;SDS011;63269;53.330;-6.288;2023-07-31T07:05:53;3.40;;;1.60;;
74749;SDS011;63269;53.330;-6.288;2023-07-31T07:08:18;3.20;;;1.58;;
74749;SDS011;63269;53.330;-6.288;2023-07-31T07:10:44;2.63;;;1.40;;
74749;SDS011;63269;53.330;-6.288;2023-07-31T07:13:09;2.50;;;1.40;;
74749;SDS011;63269;53.330;-6.288;2023-07-31T07:15:35;2.63;;;1.20;;
74749;SDS011;63269;53.330;-6.288;2023-07-31T07:18:00;2.75;;;1.40;;
74749;SDS011;63269;53.330;-6.288;2023-07-31T07:20:25;2.35;;;1.00;;
74749;SDS011;63269;53.330;-6.288;2023-07-31T07:22:51;2.80;;;1.30;;
74749;SDS011;63269;53.330;-6.288;2023-07-31T07:25:16;3.67;;;1.48;;
74749;SDS011;63269;53.330;-6.288;2023-07-31T07:27:42;3.33;;;1.42;;
74749;SDS011;63269;53.330;-6.288;2023-07-31T07:30:07;2.88;;;1.48;;
74749;SDS011;63269;53.330;-6.288;2023-07-31T07:32:33;2.70;;;1.40;;
74749;SDS011;63269;53.330;-6.288;2023-07-31T07:34:59;3.30;;;1.25;;
74749;SDS011;63269;53.330;-6.288;2023-07-31T07:37:24;3.33;;;1.55;;
74749;SDS011;63269;53.330;-6.288;2023-07-31T07:39:50;3.53;;;1.65;;
74749;SDS011;63269;53.330;-6.288;2023-07-31T07:42:15;2.85;;;1.52;;
74749;SDS011;63269;53.330;-6.288;2023-07-31T07:44:41;3.78;;;1.48;;
74749;SDS011;63269;53.330;-6.288;2023-07-31T07:47:06;3.00;;;1.80;;
74749;SDS011;63269;53.330;-6.288;2023-07-31T07:49:32;3.83;;;1.80;;
74749;SDS011;63269;53.330;-6.288;2023-07-31T07:51:59;3.25;;;1.77;;
74749;SDS011;63269;53.330;-6.288;2023-07-31T07:54:25;2.63;;;1.40;;
74749;SDS011;63269;53.330;-6.288;2023-07-31T07:56:50;5.00;;;1.60;;
74749;SDS011;63269;53.330;-6.288;2023-07-31T07:59:15;3.03;;;1.80;;
74749;SDS011;63269;53.330;-6.288;2023-07-31T08:01:41;3.38;;;1.63;;
74749;SDS011;63269;53.330;-6.288;2023-07-31T08:04:06;3.75;;;1.90;;
74749;SDS011;63269;53.330;-6.288;2023-07-31T08:06:32;3.65;;;1.63;;
74749;SDS011;63269;53.330;-6.288;2023-07-31T08:08:57;4.55;;;2.33;;
74749;SDS011;63269;53.330;-6.288;2023-07-31T08:11:22;4.70;;;1.95;;
74749;SDS011;63269;53.330;-6.288;2023-07-31T08:13:48;3.38;;;1.70;;
74749;SDS011;63269;53.330;-6.288;2023-07-31T08:16:14;2.58;;;1.67;;
74749;SDS011;63269;53.330;-6.288;2023-07-31T08:18:40;6.18;;;1.92;;
74749;SDS011;63269;53.330;-6.288;2023-07-31T08:21:07;3.65;;;1.88;;
74749;SDS011;63269;53.330;-6.288;2023-07-31T08:23:32;4.25;;;1.60;;
74749;SDS011;63269;53.330;-6.288;2023-07-31T08:25:58;7.50;;;1.77;;
74749;SDS011;63269;53.330;-6.288;2023-07-31T08:28:23;4.85;;;2.08;;
74749;SDS011;63269;53.330;-6.288;2023-07-31T08:30:49;6.18;;;1.95;;
74749;SDS011;63269;53.330;-6.288;2023-07-31T08:33:15;3.40;;;1.60;;
74749;SDS011;63269;53.330;-6.288;2023-07-31T08:35:41;4.00;;;1.65;;
74749;SDS011;63269;53.330;-6.288;2023-07-31T08:38:06;3.80;;;1.83;;
74749;SDS011;63269;53.330;-6.288;2023-07-31T08:40:32;7.40;;;1.80;;
74749;SDS011;63269;53.330;-6.288;2023-07-31T08:43:02;6.32;;;2.03;;
74749;SDS011;63269;53.330;-6.288;2023-07-31T08:45:28;4.47;;;1.63;;
74749;SDS011;63269;53.330;-6.288;2023-07-31T08:47:54;4.05;;;2.00;;
74749;SDS011;63269;53.330;-6.288;2023-07-31T08:50:21;9.07;;;2.50;;
74749;SDS011;63269;53.330;-6.288;2023-07-31T08:52:47;7.40;;;2.10;;
74749;SDS011;63269;53.330;-6.288;2023-07-31T08:55:14;12.95;;;2.25;;
74749;SDS011;63269;53.330;-6.288;2023-07-31T08:57:39;8.60;;;2.30;;
74749;SDS011;63269;53.330;-6.288;2023-07-31T09:00:08;9.68;;;2.85;;
74749;SDS011;63269;53.330;-6.288;2023-07-31T09:05:08;7.80;;;1.45;;
74749;SDS011;63269;53.330;-6.288;2023-07-31T09:07:35;6.72;;;1.92;;
74749;SDS011;63269;53.330;-6.288;2023-07-31T09:10:02;5.43;;;1.95;;
74749;SDS011;63269;53.330;-6.288;2023-07-31T09:12:28;7.68;;;1.80;;
74749;SDS011;63269;53.330;-6.288;2023-07-31T09:14:55;3.70;;;2.08;;
74749;SDS011;63269;53.330;-6.288;2023-07-31T09:17:35;6.55;;;2.42;;
74749;SDS011;63269;53.330;-6.288;2023-07-31T09:20:34;4.72;;;1.80;;
74749;SDS011;63269;53.330;-6.288;2023-07-31T09:22:53;6.30;;;2.00;;
74749;SDS011;63269;53.330;-6.288;2023-07-31T09:25:20;5.18;;;2.00;;
74749;SDS011;63269;53.330;-6.288;2023-07-31T09:27:51;6.57;;;2.28;;
74749;SDS011;63269;53.330;-6.288;2023-07-31T09:30:18;5.03;;;1.30;;
74749;SDS011;63269;53.330;-6.288;2023-07-31T09:32:47;6.78;;;1.88;;
74749;SDS011;63269;53.330;-6.288;2023-07-31T09:37:47;6.70;;;2.22;;
74749;SDS011;63269;53.330;-6.288;2023-07-31T09:40:26;4.18;;;1.85;;
74749;SDS011;63269;53.330;-6.288;2023-07-31T09:42:56;5.57;;;1.95;;
74749;SDS011;63269;53.330;-6.288;2023-07-31T09:45:24;5.75;;;1.83;;
74749;SDS011;63269;53.330;-6.288;2023-07-31T09:47:50;4.93;;;1.67;;
74749;SDS011;63269;53.330;-6.288;2023-07-31T09:50:15;3.70;;;1.98;;
74749;SDS011;63269;53.330;-6.288;2023-07-31T09:52:41;7.53;;;2.10;;
74749;SDS011;63269;53.330;-6.288;2023-07-31T09:55:07;4.45;;;1.83;;
74749;SDS011;63269;53.330;-6.288;2023-07-31T09:57:37;6.22;;;1.98;;
74749;SDS011;63269;53.330;-6.288;2023-07-31T10:00:10;5.32;;;1.90;;
74749;SDS011;63269;53.330;-6.288;2023-07-31T10:02:36;5.90;;;2.30;;
74749;SDS011;63269;53.330;-6.288;2023-07-31T10:05:03;5.45;;;1.83;;
74749;SDS011;63269;53.330;-6.288;2023-07-31T10:07:30;5.00;;;1.67;;
74749;SDS011;63269;53.330;-6.288;2023-07-31T10:09:59;4.78;;;1.73;;
74749;SDS011;63269;53.330;-6.288;2023-07-31T10:12:26;4.82;;;2.20;;
74749;SDS011;63269;53.330;-6.288;2023-07-31T10:14:55;7.43;;;2.10;;
74749;SDS011;63269;53.330;-6.288;2023-07-31T10:17:21;6.15;;;1.90;;
74749;SDS011;63269;53.330;-6.288;2023-07-31T10:19:48;4.63;;;2.25;;
74749;SDS011;63269;53.330;-6.288;2023-07-31T10:22:14;6.00;;;2.58;;
74749;SDS011;63269;53.330;-6.288;2023-07-31T10:24:43;6.00;;;2.83;;
74749;SDS011;63269;53.330;-6.288;2023-07-31T10:27:10;6.07;;;2.50;;
74749;SDS011;63269;53.330;-6.288;2023-07-31T10:29:37;5.05;;;1.98;;
74749;SDS011;63269;53.330;-6.288;2023-07-31T10:32:04;6.60;;;1.80;;
74749;SDS011;63269;53.330;-6.288;2023-07-31T10:34:33;5.13;;;2.10;;
74749;SDS011;63269;53.330;-6.288;2023-07-31T10:39:55;6.60;;;2.47;;
74749;SDS011;63269;53.330;-6.288;2023-07-31T10:42:27;5.78;;;1.77;;
74749;SDS011;63269;53.330;-6.288;2023-07-31T10:44:57;3.60;;;1.50;;
74749;SDS011;63269;53.330;-6.288;2023-07-31T10:47:26;4.18;;;1.90;;
74749;SDS011;63269;53.330;-6.288;2023-07-31T10:49:51;4.75;;;2.10;;
74749;SDS011;63269;53.330;-6.288;2023-07-31T10:52:21;4.68;;;2.30;;
74749;SDS011;63269;53.330;-6.288;2023-07-31T10:54:48;4.38;;;1.95;;
74749;SDS011;63269;53.330;-6.288;2023-07-31T10:57:21;4.70;;;2.05;;
74749;SDS011;63269;53.330;-6.288;2023-07-31T10:59:48;3.97;;;1.65;;
74749;SDS011;63269;53.330;-6.288;2023-07-31T11:02:27;5.55;;;1.48;;
74749;SDS011;63269;53.330;-6.288;2023-07-31T11:05:08;4.63;;;1.60;;
74749;SDS011;63269;53.330;-6.288;2023-07-31T11:07:47;3.87;;;1.77;;
74749;SDS011;63269;53.330;-6.288;2023-07-31T11:10:18;5.65;;;1.60;;
74749;SDS011;63269;53.330;-6.288;2023-07-31T11:12:47;4.90;;;1.98;;
74749;SDS011;63269;53.330;-6.288;2023-07-31T11:15:12;4.57;;;1.70;;
74749;SDS011;63269;53.330;-6.288;2023-07-31T11:17:38;4.65;;;1.73;;
74749;SDS011;63269;53.330;-6.288;2023-07-31T11:20:05;5.10;;;1.60;;
74749;SDS011;63269;53.330;-6.288;2023-07-31T11:22:32;3.15;;;1.50;;
74749;SDS011;63269;53.330;-6.288;2023-07-31T11:24:59;4.10;;;1.95;;
74749;SDS011;63269;53.330;-6.288;2023-07-31T11:27:27;3.83;;;1.60;;
74749;SDS011;63269;53.330;-6.288;2023-07-31T11:29:59;4.28;;;1.55;;
74749;SDS011;63269;53.330;-6.288;2023-07-31T11:32:26;5.47;;;1.92;;
74749;SDS011;63269;53.330;-6.288;2023-07-31T11:34:52;7.47;;;2.40;;
74749;SDS011;63269;53.330;-6.288;2023-07-31T11:37:20;4.40;;;1.83;;
74749;SDS011;63269;53.330;-6.288;2023-07-31T11:39:58;4.22;;;1.60;;
74749;SDS011;63269;53.330;-6.288;2023-07-31T11:42:24;3.20;;;1.40;;
74749;SDS011;63269;53.330;-6.288;2023-07-31T11:44:50;5.10;;;1.58;;
74749;SDS011;63269;53.330;-6.288;2023-07-31T11:47:16;3.65;;;1.70;;
74749;SDS011;63269;53.330;-6.288;2023-07-31T11:49:41;3.60;;;1.58;;
74749;SDS011;63269;53.330;-6.288;2023-07-31T11:52:08;3.05;;;1.55;;
74749;SDS011;63269;53.330;-6.288;2023-07-31T11:54:34;4.00;;;1.67;;
74749;SDS011;63269;53.330;-6.288;2023-07-31T11:56:59;4.05;;;1.60;;
74749;SDS011;63269;53.330;-6.288;2023-07-31T11:59:26;4.40;;;1.65;;
74749;SDS011;63269;53.330;-6.288;2023-07-31T12:01:52;4.30;;;1.85;;
74749;SDS011;63269;53.330;-6.288;2023-07-31T12:04:18;4.20;;;1.70;;
74749;SDS011;63269;53.330;-6.288;2023-07-31T12:06:46;3.25;;;1.67;;
74749;SDS011;63269;53.330;-6.288;2023-07-31T12:09:14;4.78;;;2.03;;
74749;SDS011;63269;53.330;-6.288;2023-07-31T12:11:46;2.88;;;1.20;;
74749;SDS011;63269;53.330;-6.288;2023-07-31T12:14:22;4.32;;;1.75;;
74749;SDS011;63269;53.330;-6.288;2023-07-31T12:16:59;4.03;;;2.08;;
74749;SDS011;63269;53.330;-6.288;2023-07-31T12:19:29;4.43;;;1.52;;
74749;SDS011;63269;53.330;-6.288;2023-07-31T12:21:58;4.10;;;1.63;;
74749;SDS011;63269;53.330;-6.288;2023-07-31T12:24:27;2.67;;;1.33;;
74749;SDS011;63269;53.330;-6.288;2023-07-31T12:26:53;5.10;;;1.70;;
74749;SDS011;63269;53.330;-6.288;2023-07-31T12:29:20;4.15;;;1.20;;
74749;SDS011;63269;53.330;-6.288;2023-07-31T12:31:45;3.50;;;1.55;;
74749;SDS011;63269;53.330;-6.288;2023-07-31T12:34:17;3.22;;;1.75;;
74749;SDS011;63269;53.330;-6.288;2023-07-31T12:36:46;4.35;;;1.60;;
74749;SDS011;63269;53.330;-6.288;2023-07-31T12:39:14;2.00;;;1.23;;
74749;SDS011;63269;53.330;-6.288;2023-07-31T12:41:40;3.40;;;1.30;;
74749;SDS011;63269;53.330;-6.288;2023-07-31T12:44:05;5.18;;;1.65;;
74749;SDS011;63269;53.330;-6.288;2023-07-31T12:46:30;2.65;;;1.55;;
74749;SDS011;63269;53.330;-6.288;2023-07-31T12:48:56;3.08;;;1.75;;
74749;SDS011;63269;53.330;-6.288;2023-07-31T12:51:21;3.30;;;1.27;;
74749;SDS011;63269;53.330;-6.288;2023-07-31T12:53:47;3.33;;;1.38;;
74749;SDS011;63269;53.330;-6.288;2023-07-31T12:56:12;3.78;;;1.70;;
74749;SDS011;63269;53.330;-6.288;2023-07-31T12:58:38;3.88;;;1.48;;
74749;SDS011;63269;53.330;-6.288;2023-07-31T13:01:03;3.08;;;1.58;;
74749;SDS011;63269;53.330;-6.288;2023-07-31T13:03:29;4.35;;;2.13;;
74749;SDS011;63269;53.330;-6.288;2023-07-31T13:05:54;4.65;;;1.38;;
74749;SDS011;63269;53.330;-6.288;2023-07-31T13:08:20;2.58;;;1.42;;
74749;SDS011;63269;53.330;-6.288;2023-07-31T13:10:45;4.00;;;1.20;;
74749;SDS011;63269;53.330;-6.288;2023-07-31T13:13:11;3.03;;;1.35;;
74749;SDS011;63269;53.330;-6.288;2023-07-31T13:15:36;3.88;;;1.30;;
74749;SDS011;63269;53.330;-6.288;2023-07-31T13:18:02;3.45;;;1.60;;
74749;SDS011;63269;53.330;-6.288;2023-07-31T13:20:27;3.88;;;1.50;;
74749;SDS011;63269;53.330;-6.288;2023-07-31T13:22:53;3.63;;;1.10;;
74749;SDS011;63269;53.330;-6.288;2023-07-31T13:25:18;3.55;;;1.60;;
74749;SDS011;63269;53.330;-6.288;2023-07-31T13:27:44;4.85;;;1.33;;
74749;SDS011;63269;53.330;-6.288;2023-07-31T13:30:09;2.65;;;1.40;;
74749;SDS011;63269;53.330;-6.288;2023-07-31T13:32:35;3.05;;;1.30;;
74749;SDS011;63269;53.330;-6.288;2023-07-31T13:35:05;3.78;;;1.60;;
74749;SDS011;63269;53.330;-6.288;2023-07-31T13:37:33;3.92;;;1.52;;
74749;SDS011;63269;53.330;-6.288;2023-07-31T13:39:59;3.05;;;1.40;;
74749;SDS011;63269;53.330;-6.288;2023-07-31T13:42:25;4.45;;;1.50;;
74749;SDS011;63269;53.330;-6.288;2023-07-31T13:44:50;4.43;;;1.45;;
74749;SDS011;63269;53.330;-6.288;2023-07-31T13:47:16;2.40;;;1.30;;
74749;SDS011;63269;53.330;-6.288;2023-07-31T13:49:41;4.32;;;1.35;;
74749;SDS011;63269;53.330;-6.288;2023-07-31T13:52:08;3.22;;;1.38;;
74749;SDS011;63269;53.330;-6.288;2023-07-31T13:54:33;3.03;;;1.60;;
74749;SDS011;63269;53.330;-6.288;2023-07-31T13:56:59;4.53;;;1.50;;
74749;SDS011;63269;53.330;-6.288;2023-07-31T13:59:25;2.03;;;1.20;;
74749;SDS011;63269;53.330;-6.288;2023-07-31T14:01:50;4.60;;;1.55;;
74749;SDS011;63269;53.330;-6.288;2023-07-31T14:04:16;2.80;;;1.35;;
74749;SDS011;63269;53.330;-6.288;2023-07-31T14:06:42;4.35;;;1.80;;
74749;SDS011;63269;53.330;-6.288;2023-07-31T14:09:08;3.13;;;1.75;;
74749;SDS011;63269;53.330;-6.288;2023-07-31T14:11:33;4.93;;;1.90;;
74749;SDS011;63269;53.330;-6.288;2023-07-31T14:14:00;4.10;;;1.63;;
74749;SDS011;63269;53.330;-6.288;2023-07-31T14:16:29;3.67;;;1.80;;
74749;SDS011;63269;53.330;-6.288;2023-07-31T14:18:55;3.90;;;2.00;;
74749;SDS011;63269;53.330;-6.288;2023-07-31T14:21:20;3.22;;;1.50;;
74749;SDS011;63269;53.330;-6.288;2023-07-31T14:23:45;3.55;;;1.63;;
74749;SDS011;63269;53.330;-6.288;2023-07-31T14:26:11;4.03;;;1.52;;
74749;SDS011;63269;53.330;-6.288;2023-07-31T14:28:37;3.47;;;1.45;;
74749;SDS011;63269;53.330;-6.288;2023-07-31T14:31:02;2.78;;;1.52;;
74749;SDS011;63269;53.330;-6.288;2023-07-31T14:33:28;3.15;;;1.55;;
74749;SDS011;63269;53.330;-6.288;2023-07-31T14:35:53;3.90;;;1.33;;
74749;SDS011;63269;53.330;-6.288;2023-07-31T14:38:19;4.72;;;1.65;;
74749;SDS011;63269;53.330;-6.288;2023-07-31T14:40:44;3.72;;;1.67;;
74749;SDS011;63269;53.330;-6.288;2023-07-31T14:43:10;2.85;;;1.33;;